createdAt,value
2019-04-30T00:02:05.810Z,12.29
2019-04-30T00:04:40.558Z,12.39
2019-04-30T00:07:10.330Z,12.47
2019-04-30T00:09:40.811Z,12.48
2019-04-30T00:12:09.644Z,12.66
2019-04-30T00:14:41.264Z,12.81
2019-04-30T00:17:10.790Z,12.81
2019-04-30T00:19:38.847Z,12.82
2019-04-30T00:22:07.488Z,12.78
2019-04-30T00:24:39.833Z,12.77
2019-04-30T00:27:06.549Z,12.70
2019-04-30T00:29:35.582Z,12.72
2019-04-30T00:32:07.819Z,12.66
2019-04-30T00:34:37.894Z,12.60
2019-04-30T00:37:07.366Z,12.52
2019-04-30T00:39:35.995Z,12.31
2019-04-30T00:42:05.014Z,12.40
2019-04-30T00:44:35.547Z,12.59
2019-04-30T00:47:08.060Z,12.38
2019-04-30T00:49:35.114Z,12.35
2019-04-30T00:52:05.178Z,12.38
2019-04-30T00:54:35.163Z,12.32
2019-04-30T00:57:07.540Z,12.37
2019-04-30T00:59:35.062Z,12.13
2019-04-30T01:02:30.439Z,12.16
2019-04-30T01:04:52.489Z,11.96
2019-04-30T01:07:21.159Z,12.05
2019-04-30T01:09:50.026Z,12.15
2019-04-30T01:12:24.674Z,12.12
2019-04-30T01:14:49.839Z,11.93
2019-04-30T01:17:18.927Z,11.60
2019-04-30T01:19:51.172Z,11.41
2019-04-30T01:22:21.094Z,11.66
2019-04-30T01:24:49.688Z,11.71
2019-04-30T01:27:18.888Z,11.68
2019-04-30T01:29:48.731Z,11.71
2019-04-30T01:32:20.920Z,11.52
2019-04-30T01:34:49.822Z,11.34
2019-04-30T01:37:20.268Z,11.34
2019-04-30T01:39:49.243Z,11.20
2019-04-30T01:42:18.510Z,11.19
2019-04-30T01:44:50.523Z,11.06
2019-04-30T01:47:21.422Z,11.05
2019-04-30T01:49:49.569Z,11.00
2019-04-30T01:52:19.378Z,10.87
2019-04-30T01:54:49.005Z,10.83
2019-04-30T01:57:34.672Z,10.77
2019-04-30T02:00:14.984Z,10.73
2019-04-30T02:02:49.088Z,10.61
2019-04-30T02:05:18.860Z,10.54
2019-04-30T02:07:48.657Z,10.50
2019-04-30T02:10:18.618Z,10.43
2019-04-30T02:12:49.197Z,10.24
2019-04-30T02:15:19.202Z,10.21
2019-04-30T02:17:50.235Z,10.43
2019-04-30T02:20:18.664Z,10.29
2019-04-30T02:22:48.635Z,10.13
2019-04-30T02:25:17.220Z,10.07
2019-04-30T02:27:45.879Z,9.93
2019-04-30T02:30:14.581Z,9.94
2019-04-30T02:32:43.262Z,9.93
2019-04-30T02:35:16.470Z,9.77
2019-04-30T02:38:02.918Z,9.72
2019-04-30T02:40:34.656Z,9.72
2019-04-30T02:43:03.735Z,9.81
2019-04-30T02:45:33.667Z,10.08
2019-04-30T02:48:04.217Z,9.78
2019-04-30T02:50:35.225Z,9.81
2019-04-30T02:53:06.760Z,9.65
2019-04-30T02:55:44.875Z,9.55
2019-04-30T02:58:13.491Z,9.43
2019-04-30T03:00:42.032Z,9.48
2019-04-30T03:03:11.054Z,9.45
2019-04-30T03:05:39.686Z,9.62
2019-04-30T03:08:09.606Z,9.80
2019-04-30T03:10:40.221Z,9.61
2019-04-30T03:13:09.851Z,9.60
2019-04-30T03:15:39.477Z,9.45
2019-04-30T03:18:12.529Z,9.37
2019-04-30T03:20:51.774Z,9.30
2019-04-30T03:23:20.442Z,9.47
2019-04-30T03:25:50.174Z,9.59
2019-04-30T03:28:20.181Z,9.58
2019-04-30T03:30:56.219Z,9.56
2019-04-30T03:33:22.976Z,9.58
2019-04-30T03:35:54.165Z,9.71
2019-04-30T03:38:20.457Z,9.75
2019-04-30T03:40:50.195Z,9.74
2019-04-30T03:43:20.099Z,9.79
2019-04-30T03:45:49.930Z,10.11
2019-04-30T03:48:20.053Z,10.17
2019-04-30T03:50:55.617Z,10.01
2019-04-30T03:53:20.260Z,10.05
2019-04-30T03:55:50.528Z,10.06
2019-04-30T03:58:21.175Z,10.03
2019-04-30T04:00:54.299Z,10.04
2019-04-30T04:03:22.911Z,9.95
2019-04-30T04:05:53.169Z,10.19
2019-04-30T04:08:29.518Z,10.32
2019-04-30T04:11:00.459Z,10.40
2019-04-30T04:13:29.977Z,10.50
2019-04-30T04:16:00.066Z,10.52
2019-04-30T04:18:30.177Z,10.61
2019-04-30T04:21:08.880Z,10.88
2019-04-30T04:23:32.643Z,11.01
2019-04-30T04:25:59.719Z,11.03
2019-04-30T04:28:29.964Z,11.09
2019-04-30T04:31:00.145Z,11.18
2019-04-30T04:33:29.652Z,11.20
2019-04-30T04:35:59.748Z,11.24
2019-04-30T04:38:30.342Z,11.43
2019-04-30T04:41:02.627Z,11.60
2019-04-30T04:43:30.038Z,11.75
2019-04-30T04:45:59.412Z,11.91
2019-04-30T04:48:29.779Z,12.08
2019-04-30T04:51:00.047Z,12.15
2019-04-30T04:53:30.394Z,12.17
2019-04-30T04:55:59.975Z,12.24
2019-04-30T04:58:30.296Z,12.30
2019-04-30T05:00:59.293Z,12.47
2019-04-30T05:03:32.675Z,12.55
2019-04-30T05:06:02.677Z,12.70
2019-04-30T05:08:31.389Z,13.04
2019-04-30T05:10:59.994Z,13.21
2019-04-30T05:13:29.038Z,13.22
2019-04-30T05:15:59.372Z,13.42
2019-04-30T05:18:29.129Z,13.57
2019-04-30T05:20:59.013Z,13.73
2019-04-30T05:23:29.867Z,13.87
2019-04-30T05:25:58.918Z,13.76
2019-04-30T05:28:29.943Z,13.99
2019-04-30T05:30:59.391Z,14.09
2019-04-30T05:33:28.578Z,14.06
2019-04-30T05:35:59.252Z,14.18
2019-04-30T05:38:29.060Z,14.34
2019-04-30T05:40:59.569Z,14.36
2019-04-30T05:43:29.003Z,14.44
2019-04-30T05:45:58.671Z,14.80
2019-04-30T05:48:28.567Z,14.73
2019-04-30T05:50:58.964Z,14.97
2019-04-30T05:53:28.696Z,15.23
2019-04-30T05:55:59.185Z,15.45
2019-04-30T05:58:29.955Z,15.54
2019-04-30T06:00:59.718Z,15.80
2019-04-30T06:03:32.797Z,16.06
2019-04-30T06:05:59.049Z,16.32
2019-04-30T06:08:29.331Z,16.30
2019-04-30T06:11:11.660Z,16.54
2019-04-30T06:14:01.218Z,16.71
2019-04-30T06:16:30.678Z,17.01
2019-04-30T06:18:59.302Z,17.29
2019-04-30T06:21:29.514Z,17.27
2019-04-30T06:23:59.149Z,17.32
2019-04-30T06:26:29.573Z,17.45
2019-04-30T06:28:59.279Z,17.61
2019-04-30T06:31:34.329Z,17.56
2019-04-30T06:33:58.685Z,17.75
2019-04-30T06:36:28.607Z,17.92
2019-04-30T06:38:58.968Z,18.21
2019-04-30T06:41:29.629Z,18.26
2019-04-30T06:43:58.781Z,18.44
2019-04-30T06:46:28.599Z,18.57
2019-04-30T06:48:59.403Z,18.70
2019-04-30T06:51:30.541Z,18.66
2019-04-30T06:53:58.699Z,18.74
2019-04-30T06:56:28.891Z,19.04
2019-04-30T06:58:59.048Z,19.06
2019-04-30T07:01:29.090Z,19.36
2019-04-30T07:04:00.788Z,19.60
2019-04-30T07:06:32.326Z,19.59
2019-04-30T07:09:16.654Z,19.60
2019-04-30T07:11:59.371Z,19.81
2019-04-30T07:14:29.227Z,19.74
2019-04-30T07:16:59.419Z,19.94
2019-04-30T07:19:34.576Z,20.21
2019-04-30T07:21:59.425Z,20.21
2019-04-30T07:24:29.639Z,20.57
2019-04-30T07:27:02.584Z,21.74
2019-04-30T07:29:29.587Z,21.96
2019-04-30T07:31:59.232Z,22.54
2019-04-30T07:34:30.273Z,23.13
2019-04-30T07:37:11.784Z,23.93
2019-04-30T07:39:33.254Z,24.17
2019-04-30T07:41:59.958Z,24.77
2019-04-30T07:44:35.482Z,24.37
2019-04-30T07:46:59.384Z,25.02
2019-04-30T07:49:47.042Z,25.48
2019-04-30T07:52:03.318Z,25.53
2019-04-30T07:54:32.208Z,25.27
2019-04-30T07:57:00.775Z,26.21
2019-04-30T07:59:30.200Z,26.24
2019-04-30T08:02:07.507Z,25.78
2019-04-30T08:04:46.668Z,26.16
2019-04-30T08:07:15.393Z,26.30
2019-04-30T08:09:43.998Z,26.82
2019-04-30T08:12:21.767Z,27.70
2019-04-30T08:14:43.146Z,27.14
2019-04-30T08:17:11.708Z,27.82
2019-04-30T08:19:41.049Z,28.08
2019-04-30T08:22:09.781Z,26.90
2019-04-30T08:24:39.088Z,27.47
2019-04-30T08:27:09.766Z,27.30
2019-04-30T08:29:39.468Z,28.15
2019-04-30T08:32:11.256Z,28.88
2019-04-30T08:34:39.834Z,30.31
2019-04-30T08:37:17.079Z,27.67
2019-04-30T08:39:39.753Z,27.04
2019-04-30T08:42:08.984Z,25.69
2019-04-30T08:44:39.516Z,26.02
2019-04-30T08:47:08.679Z,25.87
2019-04-30T08:49:37.978Z,26.48
2019-04-30T08:52:07.683Z,26.10
2019-04-30T08:54:36.165Z,26.27
2019-04-30T08:57:08.618Z,25.87
2019-04-30T08:59:39.367Z,25.74
2019-04-30T09:02:16.083Z,25.13
2019-04-30T09:04:38.861Z,25.81
2019-04-30T09:07:10.086Z,27.11
2019-04-30T09:09:38.959Z,26.59
2019-04-30T09:12:09.932Z,26.04
2019-04-30T09:14:40.577Z,25.41
2019-04-30T09:17:11.988Z,25.65
2019-04-30T09:19:40.595Z,25.78
2019-04-30T09:22:15.011Z,28.44
2019-04-30T09:24:39.960Z,29.15
2019-04-30T09:27:10.610Z,29.69
2019-04-30T09:29:39.174Z,29.23
2019-04-30T09:32:09.230Z,27.83
2019-04-30T09:34:38.440Z,27.10
2019-04-30T09:37:08.720Z,26.21
2019-04-30T09:39:39.245Z,25.94
2019-04-30T09:42:09.247Z,25.53
2019-04-30T09:44:39.027Z,25.12
2019-04-30T09:47:08.881Z,24.89
2019-04-30T09:49:38.816Z,24.99
2019-04-30T09:52:09.234Z,26.00
2019-04-30T09:54:39.805Z,27.27
2019-04-30T09:57:08.779Z,27.36
2019-04-30T09:59:38.908Z,28.99
2019-04-30T10:02:09.206Z,31.26
2019-04-30T10:04:39.791Z,32.60
2019-04-30T10:07:09.648Z,35.54
2019-04-30T10:09:38.201Z,36.66
2019-04-30T10:12:11.494Z,34.78
2019-04-30T10:14:41.063Z,34.92
2019-04-30T10:17:29.580Z,35.96
2019-04-30T10:19:58.254Z,33.78
2019-04-30T10:22:26.804Z,32.95
2019-04-30T10:24:55.441Z,31.47
2019-04-30T10:27:25.253Z,31.06
2019-04-30T10:29:54.427Z,31.21
2019-04-30T10:32:22.989Z,29.49
2019-04-30T10:34:51.623Z,29.13
2019-04-30T10:37:21.276Z,28.12
2019-04-30T10:39:49.928Z,28.59
2019-04-30T10:42:18.615Z,31.26
2019-04-30T10:44:47.353Z,32.55
2019-04-30T10:47:16.254Z,32.85
2019-04-30T10:49:44.882Z,31.82
2019-04-30T10:52:13.506Z,31.92
2019-04-30T10:54:42.133Z,31.90
2019-04-30T10:57:10.765Z,31.83
2019-04-30T10:59:39.395Z,31.19
2019-04-30T11:02:09.046Z,31.08
2019-04-30T11:04:37.724Z,31.61
2019-04-30T11:07:08.533Z,32.14
2019-04-30T11:09:39.382Z,34.78
2019-04-30T11:12:09.512Z,35.73
2019-04-30T11:14:38.258Z,36.26
2019-04-30T11:17:07.130Z,37.79
2019-04-30T11:19:36.064Z,39.35
2019-04-30T11:22:05.039Z,39.64
2019-04-30T11:24:38.065Z,39.83
2019-04-30T11:27:04.540Z,39.64
2019-04-30T11:29:33.520Z,38.24
2019-04-30T11:32:04.259Z,40.71
2019-04-30T11:34:32.934Z,41.15
2019-04-30T11:37:01.659Z,41.49
2019-04-30T11:39:30.458Z,42.67
2019-04-30T11:41:59.103Z,42.56
2019-04-30T11:44:31.337Z,42.23
2019-04-30T11:47:01.045Z,42.70
2019-04-30T11:49:32.406Z,43.04
2019-04-30T11:52:01.030Z,41.84
2019-04-30T11:54:29.951Z,42.09
2019-04-30T11:56:58.947Z,43.54
2019-04-30T11:59:29.619Z,43.63
2019-04-30T12:01:59.573Z,42.80
2019-04-30T12:04:29.845Z,40.45
2019-04-30T12:07:00.211Z,41.16
2019-04-30T12:09:48.482Z,42.40
2019-04-30T12:12:18.872Z,40.54
2019-04-30T12:14:49.379Z,39.90
2019-04-30T12:17:18.024Z,39.16
2019-04-30T12:19:48.717Z,37.28
2019-04-30T12:22:19.982Z,37.12
2019-04-30T12:24:48.867Z,36.55
2019-04-30T12:27:18.706Z,36.69
2019-04-30T12:29:49.467Z,35.87
2019-04-30T12:32:19.158Z,36.38
2019-04-30T12:34:48.093Z,35.92
2019-04-30T12:37:16.719Z,35.24
2019-04-30T12:39:45.325Z,35.58
2019-04-30T12:42:13.942Z,34.80
2019-04-30T12:44:42.649Z,31.55
2019-04-30T12:47:11.142Z,31.33
2019-04-30T12:49:50.709Z,32.17
2019-04-30T12:52:26.809Z,31.43
2019-04-30T12:54:59.699Z,31.57
2019-04-30T12:57:32.253Z,32.60
2019-04-30T13:00:00.925Z,34.24
2019-04-30T13:02:29.615Z,35.21
2019-04-30T13:05:00.475Z,34.65
2019-04-30T13:07:30.366Z,34.72
2019-04-30T13:10:01.539Z,35.64
2019-04-30T13:12:30.431Z,37.27
2019-04-30T13:14:59.161Z,36.20
2019-04-30T13:17:27.746Z,37.72
2019-04-30T13:19:56.368Z,38.07
2019-04-30T13:22:25.091Z,40.19
2019-04-30T13:24:53.783Z,39.71
2019-04-30T13:27:22.689Z,38.42
2019-04-30T13:29:52.954Z,38.08
2019-04-30T13:32:29.613Z,38.94
2019-04-30T13:34:53.496Z,39.40
2019-04-30T13:37:21.978Z,39.64
2019-04-30T13:39:54.965Z,39.17
2019-04-30T13:42:29.371Z,39.59
2019-04-30T13:44:58.143Z,41.02
2019-04-30T13:47:26.806Z,40.74
2019-04-30T13:49:55.406Z,40.37
2019-04-30T13:52:28.900Z,39.33
2019-04-30T13:54:57.180Z,40.61
2019-04-30T13:57:25.748Z,40.95
2019-04-30T13:59:54.374Z,39.51
2019-04-30T14:02:22.963Z,39.65
2019-04-30T14:05:02.251Z,40.78
2019-04-30T14:07:49.554Z,39.72
2019-04-30T14:10:19.577Z,37.46
2019-04-30T14:12:52.479Z,38.45
2019-04-30T14:15:21.275Z,38.09
2019-04-30T14:17:49.924Z,35.36
2019-04-30T14:20:18.650Z,34.93
2019-04-30T14:22:47.284Z,36.17
2019-04-30T14:25:16.002Z,36.85
2019-04-30T14:27:52.313Z,37.84
2019-04-30T14:30:16.341Z,37.65
2019-04-30T14:32:44.888Z,37.67
2019-04-30T14:35:13.660Z,33.60
2019-04-30T14:37:42.280Z,30.60
2019-04-30T14:40:13.054Z,28.95
2019-04-30T14:42:46.233Z,27.36
2019-04-30T14:45:17.355Z,25.75
2019-04-30T14:47:50.686Z,24.96
2019-04-30T14:50:25.883Z,25.40
2019-04-30T14:52:56.151Z,26.04
2019-04-30T14:55:29.523Z,25.31
2019-04-30T14:57:59.764Z,24.12
2019-04-30T15:00:49.707Z,23.34
2019-04-30T15:03:22.630Z,22.64
2019-04-30T15:05:51.752Z,22.16
2019-04-30T15:08:20.539Z,21.84
2019-04-30T15:10:49.287Z,21.52
2019-04-30T15:13:19.505Z,21.33
2019-04-30T15:15:49.136Z,22.09
2019-04-30T15:18:19.153Z,21.76
2019-04-30T15:20:49.792Z,21.40
2019-04-30T15:23:22.731Z,21.13
2019-04-30T15:25:51.316Z,20.98
2019-04-30T15:28:19.825Z,20.71
2019-04-30T15:30:51.187Z,20.77
2019-04-30T15:33:33.374Z,20.74
2019-04-30T15:36:02.663Z,20.56
2019-04-30T15:38:32.859Z,20.45
2019-04-30T15:41:01.456Z,20.35
2019-04-30T15:43:30.149Z,20.24
2019-04-30T15:45:58.777Z,20.21
2019-04-30T15:48:27.429Z,20.09
2019-04-30T15:50:55.998Z,20.59
2019-04-30T15:53:24.635Z,21.03
2019-04-30T15:56:00.643Z,20.98
2019-04-30T15:58:31.011Z,20.73
2019-04-30T16:01:00.016Z,20.73
2019-04-30T16:03:39.405Z,20.57
2019-04-30T16:06:08.368Z,20.60
2019-04-30T16:08:54.915Z,20.58
2019-04-30T16:11:31.001Z,20.52
2019-04-30T16:14:09.819Z,20.45
2019-04-30T16:16:40.163Z,20.22
2019-04-30T16:19:09.207Z,19.98
2019-04-30T16:21:37.936Z,19.84
2019-04-30T16:26:53.019Z,19.55
2019-04-30T16:29:21.655Z,19.34
2019-04-30T16:31:53.417Z,19.16
2019-04-30T16:34:22.067Z,18.99
2019-04-30T16:36:50.694Z,18.81
2019-04-30T16:39:19.392Z,18.73
2019-04-30T16:41:49.560Z,18.63
2019-04-30T16:44:21.315Z,18.59
2019-04-30T16:46:52.640Z,18.53
2019-04-30T16:49:28.917Z,18.45
2019-04-30T16:52:01.207Z,18.42
2019-04-30T16:54:28.535Z,18.41
2019-04-30T16:57:04.125Z,18.58
2019-04-30T16:59:30.612Z,18.66
2019-04-30T17:02:00.448Z,18.49
2019-04-30T17:04:39.806Z,18.27
2019-04-30T17:07:13.076Z,18.14
2019-04-30T17:09:50.991Z,18.04
2019-04-30T17:12:26.993Z,18.07
2019-04-30T17:15:13.435Z,17.98
2019-04-30T17:17:42.146Z,17.73
2019-04-30T17:20:10.988Z,17.43
2019-04-30T17:22:39.600Z,17.26
2019-04-30T17:25:09.041Z,17.12
2019-04-30T17:27:39.260Z,17.01
2019-04-30T17:30:11.005Z,17.02
2019-04-30T17:32:39.715Z,17.02
2019-04-30T17:35:11.271Z,16.99
2019-04-30T17:37:39.953Z,16.89
2019-04-30T17:40:12.412Z,16.78
2019-04-30T17:42:40.975Z,16.71
2019-04-30T17:45:10.115Z,16.47
2019-04-30T17:47:38.677Z,16.53
2019-04-30T17:50:10.815Z,16.53
2019-04-30T17:52:39.445Z,16.61
2019-04-30T17:55:09.674Z,16.63
2019-04-30T17:57:40.235Z,16.63
2019-04-30T18:00:18.893Z,16.64
2019-04-30T18:02:45.749Z,16.67
2019-04-30T18:05:14.373Z,16.84
2019-04-30T18:07:42.939Z,16.84
2019-04-30T18:10:13.186Z,16.77
2019-04-30T18:12:44.778Z,16.79
2019-04-30T18:15:15.796Z,16.64
2019-04-30T18:17:46.067Z,16.60
2019-04-30T18:20:25.526Z,16.46
2019-04-30T18:22:58.571Z,16.39
2019-04-30T18:25:37.759Z,16.76
2019-04-30T18:28:09.262Z,17.23
2019-04-30T18:30:39.356Z,17.52
2019-04-30T18:33:10.767Z,17.73
2019-04-30T18:35:39.410Z,17.82
2019-04-30T18:38:09.801Z,18.03
2019-04-30T18:40:39.788Z,18.19
2019-04-30T18:43:08.574Z,18.30
2019-04-30T18:45:39.393Z,18.52
2019-04-30T18:48:09.569Z,18.56
2019-04-30T18:50:38.091Z,18.47
2019-04-30T18:53:08.726Z,18.38
2019-04-30T18:55:37.369Z,18.17
2019-04-30T18:58:06.065Z,18.05
2019-04-30T19:00:42.385Z,17.88
2019-04-30T19:03:11.412Z,17.67
2019-04-30T19:05:41.687Z,17.53
2019-04-30T19:08:12.009Z,17.35
2019-04-30T19:10:58.868Z,17.25
2019-04-30T19:13:46.650Z,17.16
2019-04-30T19:16:26.177Z,17.04
2019-04-30T19:19:02.294Z,16.89
2019-04-30T19:21:33.856Z,16.72
2019-04-30T19:24:02.251Z,16.43
2019-04-30T19:26:33.908Z,16.43
2019-04-30T19:29:02.523Z,16.53
2019-04-30T19:31:31.097Z,16.53
2019-04-30T19:33:59.807Z,16.54
2019-04-30T19:36:37.343Z,16.53
2019-04-30T19:38:59.748Z,16.55
2019-04-30T19:41:28.783Z,16.65
2019-04-30T19:43:57.390Z,16.77
2019-04-30T19:46:25.997Z,16.77
2019-04-30T19:48:54.563Z,16.77
2019-04-30T19:51:23.190Z,16.73
2019-04-30T19:53:51.874Z,16.53
2019-04-30T19:56:20.728Z,16.51
2019-04-30T19:59:01.515Z,16.50
2019-04-30T20:01:19.659Z,16.45
2019-04-30T20:03:48.288Z,16.34
2019-04-30T20:06:19.005Z,16.12
2019-04-30T20:08:47.244Z,15.90
2019-04-30T20:11:15.881Z,15.73
2019-04-30T20:13:44.561Z,15.65
2019-04-30T20:16:13.117Z,15.55
2019-04-30T20:18:41.608Z,15.49
2019-04-30T20:21:11.908Z,15.46
2019-04-30T20:23:40.464Z,15.43
2019-04-30T20:26:09.109Z,15.39
2019-04-30T20:28:41.394Z,15.26
2019-04-30T20:31:09.155Z,15.17
2019-04-30T20:33:38.993Z,15.03
2019-04-30T20:36:09.199Z,15.01
2019-04-30T20:38:42.771Z,15.08
2019-04-30T20:41:12.445Z,15.08
2019-04-30T20:43:41.008Z,14.94
2019-04-30T20:46:09.682Z,14.91
2019-04-30T20:48:39.297Z,14.84
2019-04-30T20:51:09.557Z,14.77
2019-04-30T20:53:39.070Z,14.70
2019-04-30T20:56:09.212Z,14.66
2019-04-30T20:58:39.087Z,14.55
2019-04-30T21:01:09.562Z,14.42
2019-04-30T21:03:39.535Z,14.29
2019-04-30T21:06:08.904Z,14.18
2019-04-30T21:08:37.549Z,14.12
2019-04-30T21:11:06.213Z,14.04
2019-04-30T21:13:34.839Z,14.01
2019-04-30T21:16:03.480Z,13.96
2019-04-30T21:18:32.614Z,13.86
2019-04-30T21:21:01.288Z,13.83
2019-04-30T21:23:29.923Z,13.74
2019-04-30T21:25:59.056Z,13.59
2019-04-30T21:28:29.656Z,13.56
2019-04-30T21:30:59.809Z,13.51
2019-04-30T21:33:41.872Z,13.51
2019-04-30T21:36:12.081Z,13.66
2019-04-30T21:38:40.709Z,13.92
2019-04-30T21:41:09.965Z,14.02
2019-04-30T21:43:38.583Z,14.04
2019-04-30T21:46:09.368Z,14.10
2019-04-30T21:48:38.848Z,14.09
2019-04-30T21:51:09.443Z,14.01
2019-04-30T21:53:39.619Z,14.01
2019-04-30T21:56:08.339Z,13.90
2019-04-30T21:58:36.835Z,13.93
2019-04-30T22:01:13.287Z,13.94
2019-04-30T22:03:43.555Z,13.84
2019-04-30T22:06:12.460Z,13.63
2019-04-30T22:08:41.063Z,13.61
2019-04-30T22:11:09.878Z,13.53
2019-04-30T22:13:39.625Z,13.44
2019-04-30T22:16:08.990Z,13.30
2019-04-30T22:18:37.618Z,13.21
2019-04-30T22:21:06.288Z,13.09
2019-04-30T22:23:34.921Z,13.01
2019-04-30T22:26:03.555Z,12.89
2019-04-30T22:28:32.225Z,12.74
2019-04-30T22:31:00.792Z,12.59
2019-04-30T22:33:29.437Z,12.36
2019-04-30T22:35:59.711Z,12.27
2019-04-30T22:38:39.171Z,12.22
2019-04-30T22:41:08.876Z,12.15
2019-04-30T22:43:37.485Z,12.09
2019-04-30T22:46:10.767Z,12.02
2019-04-30T22:48:39.401Z,11.96
2019-04-30T22:51:08.080Z,11.94
2019-04-30T22:53:36.573Z,11.87
2019-04-30T22:56:05.243Z,11.83
2019-04-30T22:58:33.816Z,11.81
2019-04-30T23:01:04.133Z,11.80
2019-04-30T23:03:34.046Z,11.70
2019-04-30T23:06:02.730Z,11.64
2019-04-30T23:08:31.368Z,11.58
2019-04-30T23:11:00.214Z,11.58
2019-04-30T23:13:28.900Z,11.50
2019-04-30T23:15:57.546Z,11.42
2019-04-30T23:18:26.104Z,11.34
2019-04-30T23:20:54.712Z,11.29
2019-04-30T23:23:23.346Z,11.28
2019-04-30T23:25:51.987Z,11.25
2019-04-30T23:28:20.587Z,11.17
2019-04-30T23:30:49.152Z,11.15
2019-04-30T23:33:17.795Z,11.15
2019-04-30T23:35:46.398Z,11.19
2019-04-30T23:38:15.039Z,11.19
2019-04-30T23:40:46.804Z,11.22
2019-04-30T23:43:15.372Z,11.24
2019-04-30T23:45:44.750Z,11.20
2019-04-30T23:48:13.696Z,11.19
2019-04-30T23:50:42.339Z,11.21
2019-04-30T23:53:11.186Z,11.13
2019-04-30T23:55:39.839Z,11.10
2019-04-30T23:58:08.515Z,11.09
